Airport Information

KCVO - Corvallis Muni Airport

KCVO 160656Z AUTO 00000KT 10SM CLR 01/M01 A2975 RMK AO2 SLP077 T00061006 FZRANO


  • General Information

  • Coordinates: N 44°30'24"/ W 123°17'29"
  • Location: N/A
  • Surveyed Elevation: 250 MSL

Operations

Flow Name Active Runways Conditions

Green background denotes normal operations.


Common Frequencies

Callsign Frequency Position Name

More at the Document Center


Charts